Dinslaken/Schwarze Heide Airport

EDLD · North Rhine-Westphalia, Niemcy

Historia METAR EDLD · Dinslaken/Schwarze Heide Airport

Poniżej widzisz METAR-y z ostatnich kilku dni. Wybierz rok, aby przeglądać starsze METAR-y, począwszy od roku 2007.

30 listopada 2022

Czas Kod Pogoda Temp. Widoczność Sufit Wiatr METAR/SPECI
14:20
M
7 °C 7 km 2.900 ft 030° 030° 4 kt SPECI EDDL 301320Z AUTO 03004KT 320V060 7000 FEW008 OVC029 07/06 Q1024 TEMPO 4500 BR BKN008
14:20
M
7 °C 7 km 2.900 ft 030° 030° 4 kt METAR EDDL 301320Z AUTO 03004KT 320V060 7000 FEW008 OVC029 07/06 Q1024 TEMPO 4500 BR BKN008
13:50
M
7 °C 7 km 1.800 ft 330° 330° 5 kt METAR EDDL 301250Z AUTO 33005KT 7000 FEW007 BKN018 OVC026 07/05 Q1023 TEMPO 4500 BR BKN007 OVC015
13:20
I
7 °C 8 km 900 ft 360° 360° 4 kt METAR EDDL 301220Z AUTO 36004KT 320V030 8000 BKN009 OVC023 07/05 Q1024 TEMPO BKN010
12:50
I
7 °C 8 km 700 ft 360° 360° 4 kt METAR EDDL 301150Z AUTO 36004KT 320V020 8000 BKN007 BKN011 OVC021 07/05 Q1023 BECMG SCT007
12:20
I
6 °C 6 km 800 ft 360° 360° 3 kt METAR EDDL 301120Z AUTO 36003KT 6000 BKN008 BKN012 OVC025 06/05 Q1023 BECMG SCT008
11:50
I
6 °C 5 km 700 ft 350° 350° 4 kt METAR EDDL 301050Z AUTO 35004KT 5000 BR BKN007 OVC011 06/06 Q1023 BECMG SCT006
11:20
I
6 °C 4,7 km 600 ft 340° 340° 4 kt METAR EDDL 301020Z AUTO 34004KT 4700 BR BKN006 06/05 Q1024 TEMPO 2500 BR
10:50
I
6 °C 5 km 600 ft 330° 330° 5 kt METAR EDDL 300950Z AUTO 33005KT 5000 BR BKN006 BKN024 06/05 Q1024 TEMPO 3000 BR
10:20
I
6 °C 4,4 km 500 ft 320° 320° 6 kt METAR EDDL 300920Z AUTO 32006KT 4400 BR BKN005 BKN012 BKN025 06/05 Q1024 TEMPO 1200 BR
09:50
M
6 °C 5 km 2.400 ft 310° 310° 5 kt METAR EDDL 300850Z AUTO 31005KT 5000 BR FEW005 SCT009 OVC024 06/05 Q1023 TEMPO 3000 BR BKN010
09:20
M
6 °C 5 km 2.300 ft 310° 310° 3 kt METAR EDDL 300820Z AUTO 31003KT 5000 BR FEW006 OVC023 06/05 Q1023 TEMPO 3000 BR BKN010
08:50
M
6 °C 6 km 2.400 ft Var Var 1 kt METAR EDDL 300750Z AUTO VRB01KT 6000 OVC024 06/05 Q1023 TEMPO 3000 BR BKN010
08:20
M
6 °C 5 km 2.400 ft 320° 320° 2 kt METAR EDDL 300720Z AUTO 32002KT 5000 BR OVC024 06/05 Q1023 TEMPO 3000 BR BKN010
07:50
M
6 °C 8 km 2.300 ft 310° 310° 3 kt METAR EDDL 300650Z AUTO 31003KT 8000 BKN023 06/05 Q1022 TEMPO 3000 BR BKN010
07:20
M
6 °C 9 km 1.900 ft 330° 330° 3 kt METAR EDDL 300620Z AUTO 33003KT 9000 BKN019 06/05 Q1022 TEMPO 1400 BR BKN010
06:50
M
6 °C 9 km 1.800 ft 010° 010° 3 kt METAR EDDL 300550Z AUTO 01003KT 9000 OVC018 06/05 Q1022 TEMPO 1400 BR BKN010
06:20
M
6 °C 9 km 1.400 ft 020° 020° 7 kt METAR EDDL 300520Z AUTO 02007KT 9000 OVC014 06/05 Q1022 TEMPO 4000 BCFG BKN005
05:50
M
6 °C 6 km - 360° 360° 6 kt METAR EDDL 300450Z AUTO 36006KT 6000 FEW005 06/05 Q1022 TEMPO 3000 BCFG BKN005
05:20
L
6 °C 3,8 km 300 ft 010° 010° 5 kt METAR EDDL 300420Z AUTO 01005KT 3800 BR BKN003 06/06 Q1022 TEMPO 5000 BKN008
04:50
L
7 °C 2,4 km 200 ft 330° 330° 7 kt METAR EDDL 300350Z AUTO 33007KT 2400 BR OVC002 07/07 Q1022 TEMPO 1400
04:20
L
7 °C 3,8 km 300 ft 320° 320° 6 kt METAR EDDL 300320Z AUTO 32006KT 3800 BR BKN003 OVC011 07/06 Q1022 TEMPO 1500
03:50
I
7 °C 4,5 km 700 ft 320° 320° 4 kt METAR EDDL 300250Z AUTO 32004KT 4500 BR SCT003 BKN007 07/07 Q1022 TEMPO 2500 BKN003
03:20
L
7 °C 600 m 300 ft 270° 270° 3 kt METAR EDDL 300220Z AUTO 27003KT 240V300 0650 0600 R23R/1000N R23L/0900U FG VV003 07/07 Q1022 TEMPO BKN001
02:50
L
7 °C 600 m 300 ft 260° 260° 4 kt METAR EDDL 300150Z AUTO 26004KT 0600 R23R/0800N R23L/0700N FG VV003 07/07 Q1022 TEMPO BKN001
02:20
L
7 °C 750 m 100 ft 260° 260° 4 kt METAR EDDL 300120Z AUTO 26004KT 0900 0750 R23R/1100D R23L/1100D FG OVC001 07/06 Q1022 NOSIG
01:50
L
7 °C 800 m 100 ft 250° 250° 3 kt METAR EDDL 300050Z AUTO 25003KT 0900 0800 R23R/1100N R23L/1000N FG OVC001 07/06 Q1022 NOSIG
01:20
L
7 °C 1,9 km 200 ft 270° 270° 4 kt METAR EDDL 300020Z AUTO 27004KT 240V300 1900 BR OVC002 07/07 Q1022 NOSIG
00:50
L
7 °C 1,9 km 200 ft 280° 280° 5 kt METAR EDDL 292350Z AUTO 28005KT 250V310 1900 BR OVC002 07/07 Q1022 TEMPO 1200 BKN001
00:20
L
7 °C 2,4 km 200 ft 270° 270° 4 kt METAR EDDL 292320Z AUTO 27004KT 2400 BR OVC002 07/06 Q1021 TEMPO 1200

29 listopada 2022

Czas Kod Pogoda Temp. Widoczność Sufit Wiatr METAR/SPECI
23:50
L
7 °C 3,1 km 300 ft 260° 260° 3 kt METAR EDDL 292250Z AUTO 26003KT 230V300 3100 BR OVC003 07/06 Q1021 BECMG 2000
23:20
L
7 °C 4,1 km 300 ft 270° 270° 3 kt METAR EDDL 292220Z AUTO 27003KT 4100 BR OVC003 07/06 Q1021 NOSIG
22:50
L
6 °C 4,4 km 300 ft 260° 260° 3 kt METAR EDDL 292150Z AUTO 26003KT 4400 BR BKN003 OVC010 06/06 Q1021 REDZ TEMPO 2500
22:20
I
6 °C 3,9 km 1.300 ft Var Var 2 kt METAR EDDL 292120Z AUTO VRB02KT 3900 BR SCT003 OVC013 06/06 Q1021 REDZ TEMPO 1400 BKN003
21:50
L
6 °C 2,9 km 200 ft 260° 260° 3 kt METAR EDDL 292050Z AUTO 26003KT 2900 DZ BR BKN002 BKN008 OVC015 06/06 Q1021 TEMPO 1400
21:20
L
6 °C 4,2 km 300 ft Var Var 1 kt METAR EDDL 292020Z AUTO VRB01KT 4200 BR BKN003 OVC018 06/06 Q1021 TEMPO 1200 BCFG
20:50
I
5 °C 4,2 km 2.000 ft Var Var 1 kt METAR EDDL 291950Z AUTO VRB01KT 4200 BR FEW003 OVC020 OVC032 05/05 Q1021 TEMPO 1200 BCFG BKN001
20:20
L
5 °C 600 m 2.400 ft 240° 240° 3 kt METAR EDDL 291920Z AUTO 24003KT 1600 0600 R23R/0800U R23L/1900N BCFG BKN024 BKN036 05/05 Q1021 TEMPO 0600 BCFG BKN000
19:50
L
5 °C 600 m 4.000 ft 230° 230° 4 kt METAR EDDL 291850Z AUTO 23004KT 2300 0600 R23R/0700N R23L/P2000N BCFG BKN040 05/05 Q1021 TEMPO 0700 BCFG BKN000
19:20
L
5 °C 550 m - 230° 230° 3 kt METAR EDDL 291820Z AUTO 23003KT 1500 0550 R23R/0600D R23L/P2000N BCFG FEW023 05/04 Q1020 TEMPO 0700 BCFG BKN001
18:50
I
6 °C 2,1 km - 250° 250° 2 kt METAR EDDL 291750Z AUTO 25002KT 6000 2100 BR SCT024 06/05 Q1020 TEMPO 3000 BR BKN008
18:20
M
7 °C 7 km 2.200 ft 250° 250° 3 kt METAR EDDL 291720Z AUTO 25003KT 7000 FEW005 OVC022 07/07 Q1020 TEMPO 4000 BR BKN008
17:50
M
8 °C 7 km 2.200 ft 290° 290° 2 kt METAR EDDL 291650Z AUTO 29002KT 7000 FEW001 OVC022 08/07 Q1020 TEMPO 4000 BKN008
17:20
M
8 °C 7 km 1.200 ft 290° 290° 3 kt METAR EDDL 291620Z AUTO 29003KT 7000 BKN012 OVC017 08/07 Q1020 TEMPO 4000 BR BKN006
16:50
M
8 °C 8 km 1.300 ft 300° 300° 5 kt METAR EDDL 291550Z AUTO 30005KT 8000 SCT009 BKN013 OVC017 08/07 Q1020 TEMPO 4000 BKN004
16:20
L
8 °C 5 km 400 ft 330° 330° 6 kt METAR EDDL 291520Z AUTO 33006KT 5000 BR BKN004 BKN008 OVC013 08/07 Q1020 REDZ TEMPO 4500 SCT003 OVC008
15:50
L
8 °C 2,8 km 300 ft 310° 310° 6 kt METAR EDDL 291450Z AUTO 31006KT 2800 BR BKN003 08/08 Q1020 TEMPO 3500 SCT004 OVC006
15:20
I
8 °C 5 km 500 ft 320° 320° 4 kt METAR EDDL 291420Z AUTO 32004KT 5000 BR BKN005 08/07 Q1019
14:50
I
8 °C 5 km 600 ft 320° 320° 4 kt METAR EDDL 291350Z AUTO 32004KT 5000 BR OVC006 08/08 Q1019 NOSIG
14:20
I
9 °C 4,8 km 700 ft 300° 300° 4 kt METAR EDDL 291320Z AUTO 30004KT 260V340 4800 BR OVC007 09/08 Q1019 NOSIG
13:50
I
9 °C 5 km 700 ft 310° 310° 3 kt METAR EDDL 291250Z AUTO 31003KT 250V360 5000 BR OVC007 09/07 Q1019 NOSIG
13:20
I
9 °C 5 km 600 ft 300° 300° 3 kt METAR EDDL 291220Z AUTO 30003KT 250V330 5000 BR BKN006 OVC010 09/08 Q1019
12:50
I
8 °C 3,5 km 500 ft 280° 280° 4 kt METAR EDDL 291150Z AUTO 28004KT 240V300 3500 BR BKN005 08/08 Q1018 TEMPO BKN004
12:20
L
8 °C 3,3 km 400 ft 280° 280° 4 kt METAR EDDL 291120Z AUTO 28004KT 3300 BR OVC004 08/08 Q1018 TEMPO BKN005
11:50
L
8 °C 3,3 km 400 ft 280° 280° 3 kt METAR EDDL 291050Z AUTO 28003KT 240V320 3300 BR OVC004 08/08 Q1018 BECMG BKN005
11:20
L
8 °C 2,1 km 300 ft 280° 280° 3 kt METAR EDDL 291020Z AUTO 28003KT 250V320 2100 BR BKN003 OVC007 08/08 Q1018 BECMG BKN005
10:50
L
8 °C 2,3 km 300 ft Var Var 2 kt METAR EDDL 290950Z AUTO VRB02KT 2300 -DZ BR BKN003 BKN006 08/07 Q1018 TEMPO 3500
10:20
L
8 °C 3,2 km 300 ft 270° 270° 3 kt METAR EDDL 290920Z AUTO 27003KT 3200 BR BKN003 OVC007 08/07 Q1018 BECMG BKN005
09:50
L
7 °C 1,8 km 200 ft 280° 280° 5 kt METAR EDDL 290850Z AUTO 28005KT 1800 BR OVC002 07/07 Q1018 TEMPO 1300
09:20
L
7 °C 1,9 km 200 ft 290° 290° 4 kt METAR EDDL 290820Z AUTO 29004KT 1900 BR BKN002 07/07 Q1017 TEMPO 1300
08:50
L
7 °C 2,8 km 300 ft 300° 300° 3 kt METAR EDDL 290750Z AUTO 30003KT 2800 BR BKN003 BKN009 07/07 Q1017 NOSIG
08:20
I
8 °C 3,8 km 900 ft 340° 340° 3 kt METAR EDDL 290720Z AUTO 34003KT 310V010 3800 BR SCT004 OVC009 08/07 Q1017 TEMPO BKN004
07:50
L
8 °C 3,7 km 300 ft 320° 320° 3 kt METAR EDDL 290650Z AUTO 32003KT 290V350 3700 BR BKN003 OVC011 08/07 Q1017 TEMPO 2500
07:20
L
8 °C 2,6 km 200 ft 280° 280° 3 kt METAR EDDL 290620Z AUTO 28003KT 250V320 2600 BR BKN002 BKN011 08/07 Q1016 NOSIG
06:50
I
8 °C 3,4 km 1.200 ft 320° 320° 3 kt METAR EDDL 290550Z AUTO 32003KT 3400 BR SCT003 BKN012 08/07 Q1016 TEMPO BKN003
06:20
L
8 °C 3,2 km 300 ft 310° 310° 3 kt METAR EDDL 290520Z AUTO 31003KT 3200 BR BKN003 BKN014 08/08 Q1016 BECMG 2000
05:50
L
8 °C 3,5 km 300 ft 320° 320° 4 kt METAR EDDL 290450Z AUTO 32004KT 3500 BR BKN003 BKN015 08/08 Q1015 BECMG 2000
05:20
L
8 °C 3,1 km 300 ft 310° 310° 6 kt METAR EDDL 290420Z AUTO 31006KT 3100 BR OVC003 08/08 Q1015 BECMG 2000
04:50
L
8 °C 3,3 km 300 ft 300° 300° 4 kt METAR EDDL 290350Z AUTO 30004KT 3300 BR OVC003 08/08 Q1015 BECMG 2000
04:20
L
8 °C 3,4 km 300 ft 300° 300° 3 kt METAR EDDL 290320Z AUTO 30003KT 3400 BR OVC003 08/08 Q1014 TEMPO 2000
03:50
L
8 °C 3,7 km 300 ft 290° 290° 3 kt METAR EDDL 290250Z AUTO 29003KT 3700 BR OVC003 08/08 Q1014 TEMPO 2000
03:20
L
8 °C 3,6 km 300 ft 280° 280° 4 kt METAR EDDL 290220Z AUTO 28004KT 3600 BR OVC003 08/08 Q1014 TEMPO 2500
02:50
L
8 °C 3,4 km 300 ft 260° 260° 4 kt METAR EDDL 290150Z AUTO 26004KT 3400 BR OVC003 08/08 Q1014 NOSIG
02:20
L
8 °C 3,9 km 400 ft 250° 250° 4 kt METAR EDDL 290120Z AUTO 25004KT 3900 BR BKN004 OVC015 08/08 Q1014 TEMPO 5000 BKN008
01:50
M
8 °C 5 km 1.300 ft 270° 270° 4 kt METAR EDDL 290050Z AUTO 27004KT 5000 BR FEW006 BKN013 08/08 Q1014 TEMPO 3500 -DZ BKN008
01:20
I
8 °C 6 km 600 ft 250° 250° 4 kt METAR EDDL 290020Z AUTO 25004KT 6000 BKN006 OVC011 08/08 Q1014 TEMPO 3500 -DZ BR
00:50
I
8 °C 5 km 600 ft 240° 240° 4 kt METAR EDDL 282350Z AUTO 24004KT 5000 -DZ BR BKN006 OVC013 08/08 Q1014 REDZ TEMPO 3500
00:20
I
8 °C 3,5 km 700 ft 220° 220° 5 kt METAR EDDL 282320Z AUTO 22005KT 3500 -RA BR BKN007 OVC013 08/08 Q1014 RERA TEMPO 7000 BKN012

28 listopada 2022

Czas Kod Pogoda Temp. Widoczność Sufit Wiatr METAR/SPECI
23:50
M
8 °C 8 km 1.600 ft 220° 220° 4 kt METAR EDDL 282250Z AUTO 22004KT 8000 -DZ SCT008 BKN016 OVC024 08/08 Q1013 TEMPO BKN008
23:20
M
8 °C 8 km 1.000 ft 220° 220° 4 kt METAR EDDL 282220Z AUTO 22004KT 8000 BKN010 OVC027 OVC049 08/08 Q1013 TEMPO 4000 -DZ BKN008
22:50
M
8 °C 10 km+ 1.600 ft 220° 220° 4 kt METAR EDDL 282150Z AUTO 22004KT 9999 SCT011 OVC016 08/08 Q1013 TEMPO 4000 -DZ BKN010
22:20
V
8 °C 10 km+ 3.000 ft 220° 220° 5 kt METAR EDDL 282120Z AUTO 22005KT 9999 FEW001 OVC030 OVC044 08/08 Q1013 TEMPO 4000 -DZ BKN010
21:50
M
8 °C 10 km+ 1.600 ft 210° 210° 4 kt METAR EDDL 282050Z AUTO 21004KT 9999 FEW002 BKN016 OVC022 08/08 Q1013 TEMPO 4000 -DZ BKN008
21:20
M
8 °C 10 km+ 1.600 ft 210° 210° 6 kt METAR EDDL 282020Z AUTO 21006KT 9999 FEW003 BKN016 08/08 Q1013 TEMPO 3000 -DZ BKN008
20:50
M
8 °C 5 km 1.600 ft 210° 210° 4 kt METAR EDDL 281950Z AUTO 21004KT 5000 -DZ BR SCT005 OVC016 08/08 Q1013 REDZ TEMPO 2500 BKN003
20:20
I
8 °C 4,4 km 1.400 ft 200° 200° 5 kt METAR EDDL 281920Z AUTO 20005KT 4400 -DZ BR SCT006 OVC014 08/08 Q1012 REDZ TEMPO BKN005
19:50
I
8 °C 3,3 km 500 ft 190° 190° 5 kt METAR EDDL 281850Z AUTO 19005KT 3300 DZ BR BKN005 BKN013 08/08 Q1012 TEMPO OVC003
19:20
I
8 °C 4,3 km 500 ft 190° 190° 6 kt METAR EDDL 281820Z AUTO 19006KT 4300 BR BKN005 OVC010 08/08 Q1012 TEMPO OVC003
18:50
I
8 °C 9 km 800 ft 180° 180° 6 kt METAR EDDL 281750Z AUTO 18006KT 9000 FEW003 BKN008 OVC018 08/08 Q1012 TEMPO 3000 -RADZ BKN004
18:20
I
8 °C 4,2 km 500 ft 170° 170° 5 kt METAR EDDL 281720Z AUTO 17005KT 4200 BR BKN005 OVC011 08/08 Q1012 TEMPO OVC004
17:50
I
8 °C 5 km 700 ft 160° 160° 6 kt METAR EDDL 281650Z AUTO 16006KT 5000 BR OVC007 08/08 Q1012 TEMPO 3000 -RADZ BKN004
17:20
I
8 °C 7 km 700 ft 150° 150° 5 kt METAR EDDL 281620Z AUTO 15005KT 7000 FEW003 OVC007 08/08 Q1011 TEMPO 3000 -RADZ BKN004
16:50
I
8 °C 3,5 km 500 ft 170° 170° 6 kt METAR EDDL 281550Z AUTO 17006KT 3500 BR OVC005 08/07 Q1011 TEMPO OVC004
16:20
I
8 °C 10 km+ 600 ft 160° 160° 8 kt METAR EDDL 281520Z AUTO 16008KT 9999 -SHRA OVC006 FEW///TCU 08/07 Q1011 TEMPO OVC004
15:50
I
8 °C 10 km+ 700 ft 150° 150° 8 kt METAR EDDL 281450Z AUTO 15008KT 9999 -RA BKN007 08/07 Q1011 TEMPO BKN004
15:20
I
8 °C 10 km+ 800 ft 150° 150° 8 kt METAR EDDL 281420Z AUTO 15008KT 9999 -RA FEW003 BKN008 08/07 Q1011 TEMPO BKN003
14:50
I
7 °C 4,3 km 900 ft 150° 150° 7 kt METAR EDDL 281350Z AUTO 15007KT 4300 -RADZ BR FEW003 BKN009 07/07 Q1011 TEMPO BKN003
14:20
I
7 °C 3,7 km 1.000 ft 160° 160° 9 kt METAR EDDL 281320Z AUTO 16009KT 3700 -RADZ BR SCT004 BKN010 07/07 Q1011 TEMPO BKN004
13:50
I
7 °C 4,6 km 500 ft 150° 150° 8 kt METAR EDDL 281250Z AUTO 15008KT 4600 -RADZ BR BKN005 OVC011 07/07 Q1011 BECMG 6000
13:20
M
7 °C 6 km 1.100 ft 160° 160° 8 kt METAR EDDL 281220Z AUTO 16008KT 6000 -RADZ SCT006 OVC011 07/06 Q1011 TEMPO BKN006
12:50
M
7 °C 6 km 1.100 ft 150° 150° 9 kt METAR EDDL 281150Z AUTO 15009KT 6000 -RADZ BKN011 07/06 Q1011 TEMPO BKN008
12:20
M
7 °C 10 km+ 1.100 ft 150° 150° 9 kt METAR EDDL 281120Z AUTO 15009KT 130V190 9999 -RA OVC011 07/06 Q1010 TEMPO BKN008
11:50
M
7 °C 10 km+ 1.200 ft 150° 150° 9 kt METAR EDDL 281050Z AUTO 15009KT 9999 -RA OVC012 07/06 Q1011 BECMG OVC008
11:20
M
7 °C 10 km+ 1.500 ft 150° 150° 9 kt METAR EDDL 281020Z AUTO 15009KT 9999 -RA OVC015 07/06 Q1011 BECMG BKN012
10:50
M
7 °C 10 km+ 1.600 ft 160° 160° 9 kt METAR EDDL 280950Z AUTO 16009KT 9999 -RA OVC016 07/05 Q1011 BECMG BKN012

My i strony trzecie śledzimy Twoje zachowanie internetowe na naszej stronie za pomocą plików cookie. Jeśli kontynuujesz, zakładamy, że zgadzasz się z naszymi polityka plików cookie.